createdAt,value
2018-12-16T00:02:39.682Z,93.878174
2018-12-16T00:06:07.548Z,93.457031
2018-12-16T00:09:35.428Z,93.457031
2018-12-16T00:13:03.308Z,93.878174
2018-12-16T00:16:31.176Z,93.670654
2018-12-16T00:19:59.060Z,93.981934
2018-12-16T00:23:26.942Z,94.189453
2018-12-16T00:26:54.838Z,94.085693
2018-12-16T00:30:22.695Z,94.500732
2018-12-16T00:33:50.575Z,94.610596
2018-12-16T00:37:18.457Z,94.671631
2018-12-16T00:40:46.328Z,94.396973
2018-12-16T00:44:14.212Z,94.500732
2018-12-16T00:47:42.092Z,94.500732
2018-12-16T00:51:10.956Z,94.714355
2018-12-16T00:54:38.844Z,94.396973
2018-12-16T00:58:06.727Z,94.610596
2018-12-16T01:01:34.595Z,94.610596
2018-12-16T01:05:02.477Z,94.714355
2018-12-16T01:08:30.354Z,94.500732
2018-12-16T01:11:58.226Z,94.189453
2018-12-16T01:15:26.115Z,94.500732
2018-12-16T01:18:53.998Z,94.396973
2018-12-16T01:22:23.141Z,94.293213
2018-12-16T01:25:51.012Z,94.293213
2018-12-16T01:29:18.897Z,93.981934
2018-12-16T01:32:46.784Z,93.145752
2018-12-16T01:36:14.656Z,92.370605
2018-12-16T01:39:42.536Z,92.163086
2018-12-16T01:43:10.426Z,92.163086
2018-12-16T01:46:38.296Z,91.644287
2018-12-16T01:50:06.176Z,91.644287
2018-12-16T01:53:35.055Z,91.430664
2018-12-16T01:57:02.920Z,91.223145
2018-12-16T02:00:30.799Z,90.808105
2018-12-16T02:03:58.689Z,90.85083
2018-12-16T02:07:26.658Z,90.85083
2018-12-16T02:10:54.532Z,90.533447
2018-12-16T02:14:22.412Z,90.264893
2018-12-16T02:17:50.315Z,90.264893
2018-12-16T02:21:18.179Z,89.221191
2018-12-16T02:24:46.059Z,89.678955
2018-12-16T02:28:13.941Z,89.257812
2018-12-16T02:31:41.814Z,89.050293
2018-12-16T02:35:10.687Z,89.257812
2018-12-16T02:38:38.569Z,89.361572
2018-12-16T02:42:06.436Z,89.990234
2018-12-16T02:45:34.323Z,89.929199
2018-12-16T02:49:02.205Z,89.715576
2018-12-16T02:52:30.071Z,89.825439
2018-12-16T02:55:57.950Z,88.989258
2018-12-16T02:59:25.890Z,89.404297
2018-12-16T03:02:53.722Z,89.611816
2018-12-16T03:06:21.618Z,90.386963
2018-12-16T03:09:49.510Z,90.698242
2018-12-16T03:13:17.387Z,90.594482
2018-12-16T03:16:45.254Z,90.594482
2018-12-16T03:20:13.163Z,91.223145
2018-12-16T03:23:41.051Z,91.015625
2018-12-16T03:27:09.932Z,91.223145
2018-12-16T03:30:37.820Z,90.808105
2018-12-16T03:34:05.692Z,89.96582
2018-12-16T03:37:33.573Z,89.550781
2018-12-16T03:41:01.448Z,89.96582
2018-12-16T03:44:29.331Z,89.96582
2018-12-16T03:47:57.218Z,90.490723
2018-12-16T03:51:25.090Z,90.948486
2018-12-16T03:54:52.978Z,90.429688
2018-12-16T03:58:20.863Z,90.429688
2018-12-16T04:01:48.735Z,90.325928
2018-12-16T04:05:16.625Z,90.386963
2018-12-16T04:08:45.494Z,90.179443
2018-12-16T04:12:13.409Z,90.216064
2018-12-16T04:15:41.285Z,90.844727
2018-12-16T04:19:09.169Z,91.577148
2018-12-16T04:22:37.052Z,91.644287
2018-12-16T04:26:04.919Z,90.9729
2018-12-16T04:29:33.806Z,90.447998
2018-12-16T04:33:01.692Z,90.240479
2018-12-16T04:36:29.565Z,89.300537
2018-12-16T04:39:57.445Z,88.775635
2018-12-16T04:43:25.358Z,88.879395
2018-12-16T04:46:53.233Z,88.397217
2018-12-16T04:50:21.119Z,88.397217
2018-12-16T04:53:49.003Z,88.7146
2018-12-16T04:57:16.988Z,88.818359
2018-12-16T05:00:44.854Z,88.964844
2018-12-16T05:04:12.740Z,88.922119
2018-12-16T05:07:40.617Z,88.751221
2018-12-16T05:11:08.487Z,88.861084
2018-12-16T05:14:36.375Z,88.543701
2018-12-16T05:18:04.263Z,88.122559
2018-12-16T05:21:33.120Z,88.861084
2018-12-16T05:25:01.001Z,88.439941
2018-12-16T05:28:28.891Z,87.70752
2018-12-16T05:31:56.759Z,87.70752
2018-12-16T05:35:24.641Z,87.811279
2018-12-16T05:38:52.533Z,88.751221
2018-12-16T05:42:22.386Z,88.861084
2018-12-16T05:45:50.274Z,87.182617
2018-12-16T05:49:18.160Z,86.871338
2018-12-16T05:52:46.031Z,86.975098
2018-12-16T05:56:13.911Z,87.5
2018-12-16T05:59:41.799Z,86.975098
2018-12-16T06:03:09.668Z,86.767578
2018-12-16T06:06:37.551Z,86.035156
2018-12-16T06:10:05.442Z,86.242676
2018-12-16T06:13:33.329Z,84.674072
2018-12-16T06:17:01.193Z,83.94165
2018-12-16T06:20:29.076Z,84.356689
2018-12-16T06:23:56.965Z,83.728027
2018-12-16T06:27:24.837Z,84.14917
2018-12-16T06:30:52.731Z,84.04541
2018-12-16T06:34:20.615Z,83.831787
2018-12-16T06:37:48.487Z,83.24585
2018-12-16T06:41:16.381Z,83.24585
2018-12-16T06:44:44.273Z,83.557129
2018-12-16T06:48:12.147Z,84.014893
2018-12-16T06:51:41.023Z,83.38623
2018-12-16T06:55:08.906Z,83.48999
2018-12-16T06:58:36.795Z,83.48999
2018-12-16T07:02:04.663Z,83.703613
2018-12-16T07:05:32.549Z,83.911133
2018-12-16T07:09:00.437Z,83.59375
2018-12-16T07:12:28.307Z,83.074951
2018-12-16T07:15:56.196Z,83.178711
2018-12-16T07:19:24.083Z,83.59375
2018-12-16T07:22:51.976Z,84.222412
2018-12-16T07:26:19.855Z,83.911133
2018-12-16T07:29:47.736Z,84.332275
2018-12-16T07:33:15.602Z,84.436035
2018-12-16T07:36:43.490Z,84.436035
2018-12-16T07:40:11.380Z,84.539795
2018-12-16T07:43:39.248Z,84.118652
2018-12-16T07:47:07.165Z,84.014893
2018-12-16T07:50:35.039Z,83.48999
2018-12-16T07:54:02.925Z,83.48999
2018-12-16T07:57:30.799Z,83.703613
2018-12-16T08:00:59.681Z,82.757568
2018-12-16T08:04:27.569Z,82.025146
2018-12-16T08:07:55.441Z,81.671143
2018-12-16T08:11:23.330Z,81.256104
2018-12-16T08:14:51.215Z,81.884766
2018-12-16T08:18:19.090Z,81.256104
2018-12-16T08:21:46.973Z,81.256104
2018-12-16T08:25:14.853Z,81.152344
2018-12-16T08:28:42.739Z,81.567383
2018-12-16T08:32:10.629Z,81.988525
2018-12-16T08:35:38.530Z,82.196045
2018-12-16T08:39:06.419Z,81.884766
2018-12-16T08:42:34.288Z,81.359863
2018-12-16T08:46:03.173Z,81.671143
2018-12-16T08:49:31.057Z,80.938721
2018-12-16T08:52:58.946Z,81.634521
2018-12-16T08:56:26.859Z,81.427002
2018-12-16T08:59:54.775Z,81.634521
2018-12-16T09:03:22.663Z,82.580566
2018-12-16T09:06:50.598Z,82.366943
2018-12-16T09:10:18.528Z,82.891846
2018-12-16T09:13:46.511Z,82.470703
2018-12-16T09:17:14.481Z,81.951904
2018-12-16T09:20:42.382Z,81.848145
2018-12-16T09:24:10.296Z,81.951904
2018-12-16T09:27:38.189Z,81.70166
2018-12-16T09:31:06.216Z,81.915283
2018-12-16T09:34:34.238Z,81.036377
2018-12-16T09:38:02.160Z,79.467773
2018-12-16T09:41:30.615Z,79.992676
2018-12-16T09:44:58.514Z,79.992676
2018-12-16T09:48:27.407Z,80.413818
2018-12-16T09:51:55.346Z,79.327393
2018-12-16T09:55:23.298Z,77.34375
2018-12-16T09:58:51.342Z,78.387451
2018-12-16T10:02:19.531Z,77.764893
2018-12-16T10:05:47.443Z,76.818848
2018-12-16T10:09:15.335Z,75.878906
2018-12-16T10:12:43.214Z,76.507568
2018-12-16T10:16:11.115Z,76.403809
2018-12-16T10:19:39.015Z,74.938965
2018-12-16T10:23:06.972Z,75.878906
2018-12-16T10:26:34.777Z,76.507568
2018-12-16T10:30:02.679Z,75.671387
2018-12-16T10:33:30.561Z,75.042725
2018-12-16T10:36:58.458Z,74.627686
2018-12-16T10:40:26.375Z,73.266602
2018-12-16T10:43:54.265Z,73.583984
2018-12-16T10:47:22.184Z,72.637939
2018-12-16T10:50:50.101Z,72.32666
2018-12-16T10:54:18.017Z,72.43042
2018-12-16T10:57:45.906Z,71.801758
2018-12-16T11:01:13.811Z,71.386719
2018-12-16T11:04:41.733Z,72.43042
2018-12-16T11:08:09.672Z,71.697998
2018-12-16T11:11:37.593Z,72.015381
2018-12-16T11:15:05.506Z,71.563721
2018-12-16T11:18:34.396Z,71.875
2018-12-16T11:22:02.417Z,70.306396
2018-12-16T11:25:30.316Z,71.459961
2018-12-16T11:28:58.204Z,71.77124
2018-12-16T11:32:26.095Z,71.563721
2018-12-16T11:35:53.980Z,72.186279
2018-12-16T11:39:21.844Z,70.727539
2018-12-16T11:42:49.729Z,70.52002
2018-12-16T11:46:17.682Z,71.356201
2018-12-16T11:49:45.715Z,71.66748
2018-12-16T11:53:14.579Z,70.935059
2018-12-16T11:56:43.794Z,69.787598
2018-12-16T12:00:11.691Z,69.366455
2018-12-16T12:03:39.569Z,69.683838
2018-12-16T12:07:07.467Z,69.580078
2018-12-16T12:10:35.356Z,71.038818
2018-12-16T12:14:04.223Z,69.580078
2018-12-16T12:17:33.106Z,69.470215
2018-12-16T12:21:04.050Z,69.891357
2018-12-16T12:24:32.859Z,68.743896
2018-12-16T12:28:00.752Z,69.995117
2018-12-16T12:31:28.637Z,70.935059
2018-12-16T12:34:56.512Z,71.97876
2018-12-16T12:38:24.416Z,71.356201
2018-12-16T12:41:52.313Z,72.296143
2018-12-16T12:45:20.217Z,70.550537
2018-12-16T12:48:48.112Z,70.654297
2018-12-16T12:52:15.989Z,70.758057
2018-12-16T12:55:44.889Z,72.015381
2018-12-16T12:59:12.770Z,70.758057
2018-12-16T13:02:40.656Z,70.758057
2018-12-16T13:06:08.553Z,70.129395
2018-12-16T13:09:36.441Z,70.758057
2018-12-16T13:13:04.335Z,70.861816
2018-12-16T13:16:32.232Z,70.446777
2018-12-16T13:20:00.114Z,70.758057
2018-12-16T13:23:28.008Z,71.386719
2018-12-16T13:26:55.908Z,73.162842
2018-12-16T13:30:23.807Z,73.370361
2018-12-16T13:33:51.695Z,73.895264
2018-12-16T13:37:19.586Z,73.895264
2018-12-16T13:40:47.482Z,74.420166
2018-12-16T13:44:15.367Z,72.955322
2018-12-16T13:47:43.264Z,72.119141
2018-12-16T13:51:12.485Z,73.162842
2018-12-16T13:54:40.344Z,72.747803
2018-12-16T13:58:08.255Z,72.015381
2018-12-16T14:01:36.153Z,72.43042
2018-12-16T14:05:04.029Z,72.955322
2018-12-16T14:08:31.912Z,73.895264
2018-12-16T14:11:59.813Z,73.895264
2018-12-16T14:15:27.687Z,74.310303
2018-12-16T14:18:55.573Z,74.420166
2018-12-16T14:22:24.377Z,73.999023
2018-12-16T14:25:52.616Z,73.687744
2018-12-16T14:29:21.486Z,74.420166
2018-12-16T14:32:49.580Z,74.835205
2018-12-16T14:36:18.652Z,76.818848
2018-12-16T14:39:46.525Z,76.507568
2018-12-16T14:43:14.455Z,76.647949
2018-12-16T14:46:42.365Z,76.403809
2018-12-16T14:50:10.244Z,76.403809
2018-12-16T14:53:38.144Z,76.855469
2018-12-16T14:57:06.097Z,77.89917
2018-12-16T15:00:34.965Z,77.34375
2018-12-16T15:04:02.983Z,77.062988
2018-12-16T15:07:30.844Z,77.764893
2018-12-16T15:10:58.731Z,77.13623
2018-12-16T15:14:26.690Z,78.009033
2018-12-16T15:17:54.830Z,78.527832
2018-12-16T15:21:22.724Z,78.179932
2018-12-16T15:24:51.593Z,77.55127
2018-12-16T15:28:19.486Z,77.380371
2018-12-16T15:31:47.384Z,77.69165
2018-12-16T15:35:15.262Z,77.172852
2018-12-16T15:38:43.181Z,77.062988
2018-12-16T15:42:11.079Z,78.216553
2018-12-16T15:45:39.093Z,77.89917
2018-12-16T15:49:06.981Z,77.79541
2018-12-16T15:52:35.865Z,78.631592
2018-12-16T15:56:09.200Z,79.327393
2018-12-16T15:59:34.742Z,77.972412
2018-12-16T16:03:02.631Z,78.179932
2018-12-16T16:06:30.512Z,78.387451
2018-12-16T16:09:58.402Z,78.009033
2018-12-16T16:13:26.284Z,77.89917
2018-12-16T16:16:54.171Z,78.527832
2018-12-16T16:20:22.088Z,77.79541
2018-12-16T16:23:50.272Z,78.009033
2018-12-16T16:27:19.108Z,78.527832
2018-12-16T16:30:47.014Z,79.467773
2018-12-16T16:34:15.903Z,77.89917
2018-12-16T16:37:43.795Z,78.009033
2018-12-16T16:41:11.729Z,79.156494
2018-12-16T16:44:39.633Z,79.467773
2018-12-16T16:48:07.517Z,78.631592
2018-12-16T16:51:36.582Z,79.156494
2018-12-16T16:55:04.519Z,79.156494
2018-12-16T16:58:32.444Z,79.888916
2018-12-16T17:02:00.712Z,79.364014
2018-12-16T17:05:28.628Z,79.052734
2018-12-16T17:08:57.500Z,78.845215
2018-12-16T17:12:25.393Z,79.577637
2018-12-16T17:15:53.275Z,79.992676
2018-12-16T17:19:21.168Z,79.888916
2018-12-16T17:22:49.065Z,79.992676
2018-12-16T17:26:16.954Z,80.096436
2018-12-16T17:29:44.873Z,80.200195
2018-12-16T17:33:12.774Z,79.992676
2018-12-16T17:36:40.732Z,80.310059
2018-12-16T17:40:08.612Z,80.200195
2018-12-16T17:43:36.498Z,80.413818
2018-12-16T17:47:04.390Z,80.517578
2018-12-16T17:50:33.260Z,79.681396
2018-12-16T17:54:01.147Z,79.467773
2018-12-16T17:57:29.031Z,79.888916
2018-12-16T18:00:56.895Z,79.888916
2018-12-16T18:04:24.779Z,79.888916
2018-12-16T18:07:52.728Z,79.260254
2018-12-16T18:11:21.648Z,79.156494
2018-12-16T18:14:49.516Z,79.260254
2018-12-16T18:18:17.406Z,79.364014
2018-12-16T18:21:46.285Z,79.467773
2018-12-16T18:25:14.164Z,78.948975
2018-12-16T18:28:42.050Z,79.364014
2018-12-16T18:32:10.931Z,78.948975
2018-12-16T18:35:38.797Z,78.845215
2018-12-16T18:39:06.693Z,79.260254
2018-12-16T18:42:34.575Z,79.467773
2018-12-16T18:46:02.446Z,79.193115
2018-12-16T18:49:31.339Z,80.029297
2018-12-16T18:52:59.289Z,80.34668
2018-12-16T18:56:27.174Z,79.718018
2018-12-16T18:59:56.230Z,79.821777
2018-12-16T19:03:24.244Z,80.34668
2018-12-16T19:06:52.138Z,80.34668
2018-12-16T19:10:21.058Z,80.133057
2018-12-16T19:13:48.946Z,79.821777
2018-12-16T19:17:17.826Z,79.925537
2018-12-16T19:20:45.811Z,79.821777
2018-12-16T19:24:13.679Z,80.657959
2018-12-16T19:27:41.577Z,79.193115
2018-12-16T19:31:09.486Z,79.400635
2018-12-16T19:34:37.360Z,80.34668
2018-12-16T19:38:05.245Z,79.614258
2018-12-16T19:41:33.132Z,79.821777
2018-12-16T19:45:01.003Z,80.236816
2018-12-16T19:48:28.901Z,80.236816
2018-12-16T19:51:56.814Z,79.400635
2018-12-16T19:55:24.695Z,78.881836
2018-12-16T19:58:52.579Z,79.296875
2018-12-16T20:02:20.452Z,78.564453
2018-12-16T20:05:49.328Z,79.504395
2018-12-16T20:09:17.215Z,79.718018
2018-12-16T20:12:45.120Z,79.089355
2018-12-16T20:16:12.996Z,78.881836
2018-12-16T20:19:40.932Z,78.985596
2018-12-16T20:23:08.873Z,78.668213
2018-12-16T20:26:36.747Z,78.564453
2018-12-16T20:30:04.630Z,79.193115
2018-12-16T20:33:32.521Z,78.356934
2018-12-16T20:37:00.389Z,78.253174
2018-12-16T20:40:29.265Z,78.460693
2018-12-16T20:43:57.152Z,79.400635
2018-12-16T20:47:26.023Z,79.296875
2018-12-16T20:50:53.891Z,78.356934
2018-12-16T20:54:21.778Z,78.356934
2018-12-16T20:57:49.662Z,78.356934
2018-12-16T21:01:17.535Z,79.296875
2018-12-16T21:04:45.417Z,78.356934
2018-12-16T21:08:13.305Z,78.039551
2018-12-16T21:11:42.167Z,79.504395
2018-12-16T21:15:10.085Z,78.881836
2018-12-16T21:18:37.969Z,78.985596
2018-12-16T21:22:05.852Z,78.460693
2018-12-16T21:25:33.736Z,78.985596
2018-12-16T21:29:01.615Z,79.089355
2018-12-16T21:32:29.524Z,78.985596
2018-12-16T21:35:57.383Z,79.089355
2018-12-16T21:39:25.267Z,79.296875
2018-12-16T21:42:53.153Z,79.504395
2018-12-16T21:46:21.016Z,79.400635
2018-12-16T21:49:49.901Z,79.718018
2018-12-16T21:53:17.790Z,79.821777
2018-12-16T21:56:45.660Z,79.925537
2018-12-16T22:00:13.543Z,79.718018
2018-12-16T22:03:41.430Z,80.657959
2018-12-16T22:07:09.302Z,80.34668
2018-12-16T22:10:37.184Z,80.34668
2018-12-16T22:14:05.068Z,79.821777
2018-12-16T22:17:32.957Z,79.718018
2018-12-16T22:21:00.824Z,79.925537
2018-12-16T22:24:28.704Z,80.133057
2018-12-16T22:27:56.585Z,80.450439
2018-12-16T22:31:24.455Z,80.236816
2018-12-16T22:34:52.339Z,80.273438
2018-12-16T22:38:20.226Z,80.065918
2018-12-16T22:41:48.094Z,81.005859
2018-12-16T22:45:16.976Z,80.69458
2018-12-16T22:48:44.863Z,80.657959
2018-12-16T22:52:12.735Z,80.69458
2018-12-16T22:55:40.628Z,81.738281
2018-12-16T22:59:08.512Z,81.5979
2018-12-16T23:02:36.378Z,82.019043
2018-12-16T23:06:04.278Z,81.530762
2018-12-16T23:09:32.167Z,81.530762
2018-12-16T23:13:00.054Z,82.263184
2018-12-16T23:16:27.919Z,81.738281
2018-12-16T23:19:56.797Z,82.055664
2018-12-16T23:23:24.727Z,81.530762
2018-12-16T23:26:52.597Z,81.634521
2018-12-16T23:30:20.482Z,82.580566
2018-12-16T23:33:48.370Z,81.494141
2018-12-16T23:37:16.240Z,81.738281
2018-12-16T23:40:44.126Z,81.915283
2018-12-16T23:44:12.009Z,82.434082
2018-12-16T23:47:39.877Z,82.122803
2018-12-16T23:51:07.767Z,81.80542
2018-12-16T23:54:35.642Z,82.122803
2018-12-16T23:58:03.511Z,82.647705
